Time;durP1;ratioP1;P1;durP2;ratioP2;P2;SDS_P1;SDS_P2;PMS_P1;PMS_P2;Temp;Humidity;BMP_temperature;BMP_pressure;BME280_temperature;BME280_humidity;BME280_pressure;Samples;Min_cycle;Max_cycle;Signal;HPM_P1;HPM_P2
2022/12/03 00:02:03;;;;;;;1.10;1.10;;;;;;;;;;1797189;78;26778;-39
2022/12/03 00:04:31;;;;;;;1.15;1.15;;;;;;;;;;1798253;78;26648;-40
2022/12/03 00:06:58;;;;;;;1.20;1.20;;;;;;;;;;1802081;78;26225;-38
2022/12/03 00:09:25;;;;;;;1.17;1.17;;;;;;;;;;1801094;78;26226;-44
2022/12/03 00:11:52;;;;;;;1.07;1.07;;;;;;;;;;1797694;80;26303;-40
2022/12/03 00:14:20;;;;;;;1.20;1.20;;;;;;;;;;1797929;80;26186;-39
2022/12/03 00:16:47;;;;;;;1.12;1.12;;;;;;;;;;1783993;79;26249;-44
2022/12/03 00:19:14;;;;;;;0.90;0.90;;;;;;;;;;1798053;79;26675;-37
2022/12/03 00:21:41;;;;;;;1.10;1.10;;;;;;;;;;1783496;80;26187;-38
2022/12/03 00:24:09;;;;;;;1.20;1.20;;;;;;;;;;1798221;80;26233;-38
2022/12/03 00:26:36;;;;;;;1.27;1.17;;;;;;;;;;1829424;77;26282;-40
2022/12/03 00:29:03;;;;;;;1.10;1.10;;;;;;;;;;1799762;79;26246;-38
2022/12/03 00:31:30;;;;;;;0.95;0.95;;;;;;;;;;1841809;76;26302;-47
2022/12/03 00:33:58;;;;;;;1.12;1.12;;;;;;;;;;1820920;77;26234;-37
2022/12/03 00:36:25;;;;;;;1.00;1.00;;;;;;;;;;1822409;77;26262;-43
2022/12/03 00:38:52;;;;;;;1.00;1.00;;;;;;;;;;1793434;80;26228;-39
2022/12/03 00:41:19;;;;;;;1.10;1.10;;;;;;;;;;1783527;79;26296;-38
2022/12/03 00:43:47;;;;;;;1.10;1.10;;;;;;;;;;1823293;77;26267;-41
2022/12/03 00:46:14;;;;;;;0.95;0.95;;;;;;;;;;1822986;77;26337;-38
2022/12/03 00:48:41;;;;;;;0.82;0.82;;;;;;;;;;1822182;77;26202;-40
2022/12/03 00:51:08;;;;;;;1.10;1.10;;;;;;;;;;1819755;77;26636;-38
2022/12/03 00:53:36;;;;;;;1.10;1.10;;;;;;;;;;1806154;78;26798;-42
2022/12/03 00:56:03;;;;;;;1.00;1.00;;;;;;;;;;1800082;79;26748;-41
2022/12/03 00:58:30;;;;;;;1.10;1.10;;;;;;;;;;1845392;77;26212;-48
2022/12/03 01:00:58;;;;;;;1.00;1.00;;;;;;;;;;1819024;77;26229;-37
2022/12/03 01:03:25;;;;;;;1.10;1.10;;;;;;;;;;1807619;78;26218;-45
2022/12/03 01:05:52;;;;;;;1.07;1.07;;;;;;;;;;1840214;77;26305;-38
2022/12/03 01:08:20;;;;;;;1.00;1.00;;;;;;;;;;1845822;76;26174;-37
2022/12/03 01:10:47;;;;;;;1.10;1.10;;;;;;;;;;1822679;77;26245;-38
2022/12/03 01:13:14;;;;;;;1.00;1.00;;;;;;;;;;1820999;78;26198;-40
2022/12/03 01:15:42;;;;;;;0.95;0.95;;;;;;;;;;1767947;80;26293;-38
2022/12/03 01:18:09;;;;;;;1.10;1.10;;;;;;;;;;1796417;78;26191;-37
2022/12/03 01:20:37;;;;;;;1.17;1.17;;;;;;;;;;1796302;78;26285;-41
2022/12/03 01:23:05;;;;;;;1.00;1.00;;;;;;;;;;1796818;78;26183;-38
2022/12/03 01:25:32;;;;;;;1.00;1.00;;;;;;;;;;1798128;78;26680;-47
2022/12/03 01:27:59;;;;;;;1.10;1.07;;;;;;;;;;1808525;78;26652;-40
2022/12/03 01:30:27;;;;;;;0.90;0.90;;;;;;;;;;1767131;79;26208;-40
2022/12/03 01:32:54;;;;;;;1.10;1.10;;;;;;;;;;1783419;79;26404;-38
2022/12/03 01:35:21;;;;;;;1.00;1.00;;;;;;;;;;1826966;77;26181;-40
2022/12/03 01:37:48;;;;;;;1.00;1.00;;;;;;;;;;1837629;77;26282;-44
2022/12/03 01:40:17;;;;;;;1.10;1.10;;;;;;;;;;1817629;78;26230;-38
2022/12/03 01:42:44;;;;;;;1.00;1.00;;;;;;;;;;1805485;78;26241;-41
2022/12/03 01:45:13;;;;;;;1.15;1.15;;;;;;;;;;1775773;81;26618;-42
2022/12/03 01:47:40;;;;;;;1.00;1.00;;;;;;;;;;1785878;79;26630;-40
2022/12/03 01:50:09;;;;;;;1.00;1.00;;;;;;;;;;1806219;78;26239;-41
2022/12/03 01:52:38;;;;;;;1.10;1.10;;;;;;;;;;1802423;78;26245;-49
2022/12/03 01:55:07;;;;;;;1.10;1.10;;;;;;;;;;1804941;78;26682;-43
2022/12/03 01:57:41;;;;;;;1.00;1.00;;;;;;;;;;1805922;78;26238;-44
2022/12/03 02:00:16;;;;;;;0.93;0.93;;;;;;;;;;1806195;78;26271;-38
2022/12/03 02:02:44;;;;;;;1.10;1.10;;;;;;;;;;1805815;78;26267;-39
2022/12/03 02:05:15;;;;;;;1.00;1.00;;;;;;;;;;1806434;78;26363;-39
2022/12/03 02:07:43;;;;;;;1.00;1.00;;;;;;;;;;1811312;78;26270;-46
2022/12/03 02:10:11;;;;;;;1.00;1.00;;;;;;;;;;1795447;79;26189;-41
2022/12/03 02:12:40;;;;;;;1.00;1.00;;;;;;;;;;1806007;79;26280;-40
2022/12/03 02:15:08;;;;;;;1.00;1.00;;;;;;;;;;1805667;78;26206;-42
2022/12/03 02:17:36;;;;;;;1.00;1.00;;;;;;;;;;1804843;78;26260;-40
2022/12/03 02:20:04;;;;;;;1.25;1.25;;;;;;;;;;1809054;78;26234;-45
2022/12/03 02:22:36;;;;;;;0.90;0.90;;;;;;;;;;1806239;78;26249;-38
2022/12/03 02:25:11;;;;;;;1.02;1.02;;;;;;;;;;1803366;78;26297;-42
2022/12/03 02:27:38;;;;;;;1.10;1.10;;;;;;;;;;1772408;80;26227;-38
2022/12/03 02:30:06;;;;;;;2.37;1.10;;;;;;;;;;1792301;79;26674;-41
2022/12/03 02:32:33;;;;;;;1.40;1.10;;;;;;;;;;1786071;78;26574;-40
2022/12/03 02:35:00;;;;;;;1.30;1.20;;;;;;;;;;1785787;80;26219;-37
2022/12/03 02:37:32;;;;;;;1.42;1.32;;;;;;;;;;1785851;79;26187;-39
2022/12/03 02:40:01;;;;;;;1.02;1.02;;;;;;;;;;1786467;79;26187;-37
2022/12/03 02:42:34;;;;;;;0.90;0.90;;;;;;;;;;1789959;79;26279;-40
2022/12/03 02:45:03;;;;;;;1.10;1.10;;;;;;;;;;1786544;79;26234;-41
2022/12/03 02:47:31;;;;;;;0.90;0.90;;;;;;;;;;1785757;79;26191;-40
2022/12/03 02:49:59;;;;;;;1.00;1.00;;;;;;;;;;1785429;79;26721;-40
2022/12/03 02:52:26;;;;;;;1.00;1.00;;;;;;;;;;1785735;78;26204;-38
2022/12/03 02:54:53;;;;;;;0.90;0.90;;;;;;;;;;1805411;79;26186;-38
2022/12/03 02:57:21;;;;;;;1.00;1.00;;;;;;;;;;1800310;78;26267;-39
2022/12/03 02:59:48;;;;;;;1.00;1.00;;;;;;;;;;1753680;80;26240;-43
2022/12/03 03:02:16;;;;;;;1.00;1.00;;;;;;;;;;1820134;77;26251;-41
2022/12/03 03:04:43;;;;;;;1.12;1.12;;;;;;;;;;1831081;77;26642;-40
2022/12/03 03:07:11;;;;;;;1.05;1.05;;;;;;;;;;1824469;76;26268;-38
2022/12/03 03:09:39;;;;;;;1.62;1.10;;;;;;;;;;1852948;77;26629;-40
2022/12/03 03:12:06;;;;;;;1.10;1.10;;;;;;;;;;1844320;77;26318;-42
2022/12/03 03:14:34;;;;;;;0.82;0.82;;;;;;;;;;1832932;77;26227;-41
2022/12/03 03:17:01;;;;;;;0.82;0.82;;;;;;;;;;1849674;77;26189;-38
2022/12/03 03:19:29;;;;;;;1.00;1.00;;;;;;;;;;1839173;76;26224;-38
2022/12/03 03:21:56;;;;;;;1.02;1.02;;;;;;;;;;1837784;76;26228;-38
2022/12/03 03:24:24;;;;;;;1.05;1.05;;;;;;;;;;1832118;77;26258;-38
2022/12/03 03:26:52;;;;;;;0.90;0.90;;;;;;;;;;1845819;77;27166;-38
2022/12/03 03:29:19;;;;;;;1.00;1.00;;;;;;;;;;1860479;75;26273;-41
2022/12/03 03:31:46;;;;;;;1.00;1.00;;;;;;;;;;1849457;76;26691;-41
2022/12/03 03:34:14;;;;;;;1.00;1.00;;;;;;;;;;1860479;77;26263;-42
2022/12/03 03:36:42;;;;;;;1.00;1.00;;;;;;;;;;1859968;76;26232;-41
2022/12/03 03:39:09;;;;;;;1.00;1.00;;;;;;;;;;1859636;75;26211;-37
2022/12/03 03:41:37;;;;;;;1.00;1.00;;;;;;;;;;1862189;76;26813;-41
2022/12/03 03:44:05;;;;;;;0.90;0.90;;;;;;;;;;1856429;76;26306;-40
2022/12/03 03:46:33;;;;;;;0.93;0.93;;;;;;;;;;1860427;76;26767;-41
2022/12/03 03:49:01;;;;;;;0.90;0.90;;;;;;;;;;1863379;76;26211;-42
2022/12/03 03:51:29;;;;;;;1.10;1.10;;;;;;;;;;1877402;76;26207;-39
2022/12/03 03:53:56;;;;;;;1.00;1.00;;;;;;;;;;1860336;77;26301;-38
2022/12/03 03:56:24;;;;;;;0.90;0.90;;;;;;;;;;1860913;76;26719;-41
2022/12/03 03:58:51;;;;;;;1.00;1.00;;;;;;;;;;1858632;76;26292;-44
2022/12/03 04:01:19;;;;;;;1.00;1.00;;;;;;;;;;1865007;75;26216;-41
2022/12/03 04:03:46;;;;;;;1.10;1.10;;;;;;;;;;1890696;76;26869;-42
2022/12/03 04:06:13;;;;;;;1.20;1.20;;;;;;;;;;1858802;76;26211;-42
2022/12/03 04:08:40;;;;;;;1.37;1.17;;;;;;;;;;1859602;76;26212;-42
2022/12/03 04:13:53;;;;;;;1.00;1.00;;;;;;;;;;1861197;76;26203;-39
2022/12/03 04:16:21;;;;;;;1.00;1.00;;;;;;;;;;1853878;77;26279;-38
2022/12/03 04:18:48;;;;;;;1.00;1.00;;;;;;;;;;1854013;76;26219;-39
2022/12/03 04:24:02;;;;;;;0.90;0.90;;;;;;;;;;1858997;76;26205;-46
2022/12/03 04:29:15;;;;;;;1.00;1.00;;;;;;;;;;1857559;76;26357;-38
2022/12/03 04:37:00;;;;;;;1.02;1.02;;;;;;;;;;1846725;76;26261;-39
2022/12/03 04:39:28;;;;;;;0.90;0.90;;;;;;;;;;1856645;76;26291;-40
2022/12/03 04:41:55;;;;;;;1.05;1.05;;;;;;;;;;1858120;76;26731;-45
2022/12/03 04:44:39;;;;;;;1.05;1.05;;;;;;;;;;1857143;76;26292;-43
2022/12/03 04:47:11;;;;;;;1.10;1.10;;;;;;;;;;1853129;76;26276;-44
2022/12/03 04:49:39;;;;;;;1.00;1.00;;;;;;;;;;1856819;76;26219;-44
2022/12/03 04:52:07;;;;;;;1.10;1.10;;;;;;;;;;1857554;76;26334;-43
2022/12/03 04:54:35;;;;;;;0.95;0.95;;;;;;;;;;1824078;77;26648;-39
2022/12/03 04:57:02;;;;;;;0.90;0.90;;;;;;;;;;1820952;77;26203;-43
2022/12/03 04:59:29;;;;;;;1.07;1.07;;;;;;;;;;1800599;78;26296;-41
2022/12/03 05:01:56;;;;;;;1.00;1.00;;;;;;;;;;1808236;77;26740;-45
2022/12/03 05:04:24;;;;;;;1.00;1.00;;;;;;;;;;1788602;79;26280;-40
2022/12/03 05:06:51;;;;;;;1.00;1.00;;;;;;;;;;1823303;77;26269;-41
2022/12/03 05:09:19;;;;;;;0.90;0.90;;;;;;;;;;1776663;80;26602;-38
2022/12/03 05:11:46;;;;;;;0.90;0.90;;;;;;;;;;1836483;77;26195;-41
2022/12/03 05:14:13;;;;;;;0.90;0.90;;;;;;;;;;1836277;77;26259;-38
2022/12/03 05:16:41;;;;;;;0.82;0.82;;;;;;;;;;1835384;77;26682;-43
2022/12/03 05:19:09;;;;;;;0.98;0.98;;;;;;;;;;1832646;78;27047;-38
2022/12/03 05:21:36;;;;;;;1.10;1.10;;;;;;;;;;1818715;77;26221;-38
2022/12/03 05:24:04;;;;;;;0.90;0.90;;;;;;;;;;1822399;79;26316;-41
2022/12/03 05:26:31;;;;;;;1.07;1.07;;;;;;;;;;1822033;77;26673;-42
2022/12/03 05:28:59;;;;;;;0.80;0.80;;;;;;;;;;1799263;79;26356;-38
2022/12/03 05:31:26;;;;;;;0.90;0.90;;;;;;;;;;1799734;78;26766;-45
2022/12/03 05:33:54;;;;;;;1.00;1.00;;;;;;;;;;1797799;78;26696;-42
2022/12/03 05:36:21;;;;;;;0.90;0.90;;;;;;;;;;1784404;80;26244;-39
2022/12/03 05:38:48;;;;;;;0.93;0.93;;;;;;;;;;1827057;77;26240;-43
2022/12/03 05:44:00;;;;;;;1.10;1.10;;;;;;;;;;1829029;77;27295;-43
2022/12/03 05:46:28;;;;;;;1.00;1.00;;;;;;;;;;1833271;77;26275;-38
2022/12/03 05:48:55;;;;;;;0.90;0.90;;;;;;;;;;1833707;77;26220;-37
2022/12/03 05:51:22;;;;;;;1.00;1.00;;;;;;;;;;1835941;77;26256;-51
2022/12/03 05:53:50;;;;;;;0.90;0.90;;;;;;;;;;1829462;77;26661;-38
2022/12/03 05:56:17;;;;;;;1.00;1.00;;;;;;;;;;1797172;78;26669;-38
2022/12/03 05:58:44;;;;;;;0.98;0.98;;;;;;;;;;1829932;77;26649;-41
2022/12/03 06:01:11;;;;;;;1.02;1.02;;;;;;;;;;1831377;77;26755;-39
2022/12/03 06:03:39;;;;;;;0.90;0.90;;;;;;;;;;1795348;79;26242;-45
2022/12/03 06:06:06;;;;;;;0.85;0.85;;;;;;;;;;1796147;78;26330;-41
2022/12/03 06:08:33;;;;;;;1.00;1.00;;;;;;;;;;1831892;78;26232;-47
2022/12/03 06:11:00;;;;;;;0.90;0.90;;;;;;;;;;1799638;78;27027;-43
2022/12/03 06:13:28;;;;;;;1.57;0.93;;;;;;;;;;1797581;79;27075;-43
2022/12/03 06:15:55;;;;;;;0.90;0.90;;;;;;;;;;1758534;81;26267;-40
2022/12/03 06:18:22;;;;;;;1.00;1.00;;;;;;;;;;1796691;78;26248;-48
2022/12/03 06:20:50;;;;;;;0.82;0.82;;;;;;;;;;1796732;79;26294;-40
2022/12/03 06:23:17;;;;;;;0.80;0.80;;;;;;;;;;1756627;81;26317;-38
2022/12/03 06:25:44;;;;;;;0.90;0.90;;;;;;;;;;1823563;76;26286;-42
2022/12/03 06:28:11;;;;;;;1.32;0.90;;;;;;;;;;1795623;78;26211;-42
2022/12/03 06:30:39;;;;;;;0.75;0.75;;;;;;;;;;1809892;77;26222;-38
2022/12/03 06:33:06;;;;;;;1.00;1.00;;;;;;;;;;1764486;81;26282;-42
2022/12/03 06:35:33;;;;;;;1.10;1.10;;;;;;;;;;1796459;78;26199;-41
2022/12/03 06:38:00;;;;;;;0.80;0.80;;;;;;;;;;1796109;79;26190;-41
2022/12/03 06:40:28;;;;;;;1.07;1.07;;;;;;;;;;1795942;78;26285;-40
2022/12/03 06:42:55;;;;;;;0.72;0.72;;;;;;;;;;1796600;78;27286;-37
2022/12/03 06:45:22;;;;;;;0.88;0.88;;;;;;;;;;1796341;78;26754;-41
2022/12/03 06:47:50;;;;;;;1.10;1.10;;;;;;;;;;1796004;79;26183;-48
2022/12/03 06:50:17;;;;;;;1.00;1.00;;;;;;;;;;1827344;77;26288;-43
2022/12/03 06:52:44;;;;;;;0.85;0.85;;;;;;;;;;1815588;77;26286;-51
2022/12/03 06:55:11;;;;;;;1.00;1.00;;;;;;;;;;1789897;78;26655;-42
2022/12/03 06:57:39;;;;;;;1.00;1.00;;;;;;;;;;1815903;77;26222;-41
2022/12/03 07:00:07;;;;;;;0.88;0.88;;;;;;;;;;1791509;79;26253;-42
2022/12/03 07:02:35;;;;;;;0.88;0.88;;;;;;;;;;1821415;77;26230;-44
2022/12/03 07:05:02;;;;;;;1.73;1.10;;;;;;;;;;1769620;79;21624;-45
2022/12/03 07:07:29;;;;;;;3.10;1.10;;;;;;;;;;1781342;78;28921;-38
2022/12/03 07:09:57;;;;;;;1.57;0.93;;;;;;;;;;1798984;78;25924;-38
2022/12/03 07:12:24;;;;;;;2.70;1.25;;;;;;;;;;1796031;78;26592;-46
2022/12/03 07:14:51;;;;;;;0.98;0.98;;;;;;;;;;1821221;77;26241;-42
2022/12/03 07:17:18;;;;;;;1.27;0.80;;;;;;;;;;1832307;77;26308;-41
2022/12/03 07:19:46;;;;;;;0.98;0.98;;;;;;;;;;1824414;77;26231;-44
2022/12/03 07:22:13;;;;;;;0.90;0.90;;;;;;;;;;1822861;77;26655;-46
2022/12/03 07:24:40;;;;;;;1.00;1.00;;;;;;;;;;1835829;77;26266;-45
2022/12/03 07:27:08;;;;;;;1.00;1.00;;;;;;;;;;1833322;77;26212;-42
2022/12/03 07:29:35;;;;;;;0.98;0.98;;;;;;;;;;1834864;77;27016;-43
2022/12/03 07:32:02;;;;;;;2.22;1.00;;;;;;;;;;1825243;77;26261;-43
2022/12/03 07:34:29;;;;;;;1.32;1.02;;;;;;;;;;1824341;78;26245;-43
2022/12/03 07:36:57;;;;;;;1.10;1.10;;;;;;;;;;1824574;77;26238;-45
2022/12/03 07:39:24;;;;;;;1.20;1.10;;;;;;;;;;1823887;77;26222;-42
2022/12/03 07:41:52;;;;;;;1.80;1.30;;;;;;;;;;1833293;77;26203;-40
2022/12/03 07:44:19;;;;;;;2.75;1.52;;;;;;;;;;1825268;77;26218;-50
2022/12/03 07:46:46;;;;;;;2.80;1.50;;;;;;;;;;1824519;77;26303;-44
2022/12/03 07:49:13;;;;;;;2.00;1.57;;;;;;;;;;1833608;77;26657;-44
2022/12/03 07:51:41;;;;;;;2.70;2.10;;;;;;;;;;1828704;77;26215;-45
2022/12/03 07:54:09;;;;;;;2.17;2.08;;;;;;;;;;1823932;77;26242;-51
2022/12/03 07:56:36;;;;;;;2.40;2.30;;;;;;;;;;1823845;77;26303;-41
2022/12/03 07:59:03;;;;;;;2.30;2.20;;;;;;;;;;1823901;78;26222;-50
2022/12/03 08:01:30;;;;;;;3.65;3.02;;;;;;;;;;1820922;77;26269;-47
2022/12/03 08:03:58;;;;;;;5.20;3.42;;;;;;;;;;1832394;77;26204;-41
2022/12/03 08:06:25;;;;;;;7.33;4.08;;;;;;;;;;1827303;77;26218;-38
2022/12/03 08:08:52;;;;;;;6.95;4.17;;;;;;;;;;1826258;77;26288;-39
2022/12/03 08:11:20;;;;;;;8.55;4.47;;;;;;;;;;1824380;77;26678;-41
2022/12/03 08:13:47;;;;;;;10.43;5.03;;;;;;;;;;1824996;77;26196;-38
2022/12/03 08:16:18;;;;;;;12.65;4.28;;;;;;;;;;1820465;77;26604;-44
2022/12/03 08:18:46;;;;;;;7.72;4.50;;;;;;;;;;1824660;77;27048;-41
2022/12/03 08:21:14;;;;;;;7.92;4.42;;;;;;;;;;1824340;77;26226;-38
2022/12/03 08:23:42;;;;;;;8.40;4.33;;;;;;;;;;1825098;77;26836;-47
2022/12/03 08:26:10;;;;;;;10.08;4.70;;;;;;;;;;1800973;78;26245;-36
2022/12/03 08:28:38;;;;;;;6.97;4.17;;;;;;;;;;1766442;80;26318;-39
2022/12/03 08:31:22;;;;;;;7.87;4.28;;;;;;;;;;1825286;77;26239;-39
2022/12/03 08:33:51;;;;;;;6.83;4.20;;;;;;;;;;1853752;76;26231;-40
2022/12/03 08:36:20;;;;;;;8.60;4.15;;;;;;;;;;1840260;76;26661;-37
2022/12/03 08:38:48;;;;;;;6.42;3.70;;;;;;;;;;1834492;76;26751;-39
2022/12/03 08:42:40;;;;;;;6.78;3.60;;;;;;;;;;1841231;76;26216;-41
2022/12/03 08:43:45;;;;;;;8.48;3.70;;;;;;;;;;1835006;76;26228;-43
2022/12/03 08:46:15;;;;;;;8.38;3.75;;;;;;;;;;1841675;76;26723;-40
2022/12/03 08:48:43;;;;;;;5.15;3.20;;;;;;;;;;1822161;77;27062;-44
2022/12/03 08:51:20;;;;;;;5.95;3.30;;;;;;;;;;1839819;77;26249;-45
2022/12/03 08:53:48;;;;;;;3.98;2.75;;;;;;;;;;1821418;77;26245;-40
2022/12/03 08:56:23;;;;;;;5.87;3.20;;;;;;;;;;1822765;77;26745;-37
2022/12/03 08:58:58;;;;;;;3.83;3.00;;;;;;;;;;1827417;77;27070;-38
2022/12/03 09:01:32;;;;;;;4.67;2.47;;;;;;;;;;1777402;79;26781;-39
2022/12/03 09:04:01;;;;;;;6.05;3.20;;;;;;;;;;1822736;77;26274;-38
2022/12/03 09:06:28;;;;;;;3.72;2.60;;;;;;;;;;1827379;77;26695;-37
2022/12/03 09:08:55;;;;;;;3.20;2.42;;;;;;;;;;1822665;77;27163;-37
2022/12/03 09:11:22;;;;;;;4.85;2.95;;;;;;;;;;1781714;80;27128;-37
2022/12/03 09:13:50;;;;;;;2.47;2.12;;;;;;;;;;1823072;77;27006;-38
2022/12/03 09:16:18;;;;;;;2.98;2.33;;;;;;;;;;1821130;77;26281;-44
2022/12/03 09:18:46;;;;;;;2.15;2.00;;;;;;;;;;1823603;77;26736;-39
2022/12/03 09:21:13;;;;;;;2.22;1.98;;;;;;;;;;1822394;77;26252;-38
2022/12/03 09:23:40;;;;;;;2.05;1.90;;;;;;;;;;1778225;79;26216;-38
2022/12/03 09:26:07;;;;;;;2.55;2.10;;;;;;;;;;1794881;78;26292;-41
2022/12/03 09:28:35;;;;;;;2.10;1.92;;;;;;;;;;1796088;80;26186;-39
2022/12/03 09:31:02;;;;;;;2.25;2.05;;;;;;;;;;1783070;78;26190;-39
2022/12/03 09:33:31;;;;;;;2.02;1.92;;;;;;;;;;1794473;79;26655;-41
2022/12/03 09:35:58;;;;;;;1.55;1.50;;;;;;;;;;1800577;78;26335;-44
2022/12/03 09:38:26;;;;;;;1.75;1.65;;;;;;;;;;1797740;78;26214;-42
2022/12/03 09:40:53;;;;;;;1.70;1.60;;;;;;;;;;1797208;78;26241;-37
2022/12/03 09:43:20;;;;;;;2.17;1.75;;;;;;;;;;1802671;78;26651;-37
2022/12/03 09:45:48;;;;;;;1.95;1.65;;;;;;;;;;1796965;78;26344;-37
2022/12/03 09:48:19;;;;;;;1.90;1.80;;;;;;;;;;1801065;78;26214;-37
2022/12/03 09:50:46;;;;;;;1.45;1.37;;;;;;;;;;1797580;78;26304;-41
2022/12/03 09:53:15;;;;;;;1.80;1.70;;;;;;;;;;1797667;78;26206;-37
2022/12/03 09:55:43;;;;;;;1.60;1.50;;;;;;;;;;1775626;79;26323;-46
2022/12/03 09:58:11;;;;;;;1.32;1.20;;;;;;;;;;1768724;80;26192;-40
2022/12/03 10:00:39;;;;;;;1.75;1.65;;;;;;;;;;1798859;78;26229;-43
2022/12/03 10:03:07;;;;;;;1.57;1.47;;;;;;;;;;1810763;78;26235;-44
2022/12/03 10:05:34;;;;;;;1.60;1.50;;;;;;;;;;1830420;77;26211;-41
2022/12/03 10:08:03;;;;;;;1.50;1.40;;;;;;;;;;1830092;77;26181;-39
2022/12/03 10:10:30;;;;;;;1.22;1.22;;;;;;;;;;1834311;77;26273;-37
2022/12/03 10:12:58;;;;;;;1.40;1.30;;;;;;;;;;1825205;77;26733;-40
2022/12/03 10:15:25;;;;;;;1.50;1.40;;;;;;;;;;1825009;77;26307;-38
2022/12/03 10:17:53;;;;;;;1.30;1.30;;;;;;;;;;1824711;77;26214;-41
2022/12/03 10:20:22;;;;;;;1.20;1.20;;;;;;;;;;1825314;77;26183;-36
2022/12/03 10:22:49;;;;;;;1.07;1.05;;;;;;;;;;1822280;77;26692;-37
2022/12/03 10:25:18;;;;;;;1.10;1.10;;;;;;;;;;1825250;78;26229;-37
2022/12/03 10:27:49;;;;;;;1.10;1.10;;;;;;;;;;1823463;77;26210;-37
2022/12/03 10:30:25;;;;;;;1.20;1.20;;;;;;;;;;1813539;77;26320;-42
2022/12/03 10:32:48;;;;;;;1.20;1.20;;;;;;;;;;1815333;77;26611;-38
2022/12/03 10:35:20;;;;;;;0.90;0.90;;;;;;;;;;1812407;77;26198;-40
2022/12/03 10:38:00;;;;;;;1.15;1.15;;;;;;;;;;1813805;78;26206;-41
2022/12/03 10:40:31;;;;;;;1.10;1.10;;;;;;;;;;1813905;78;26650;-46
2022/12/03 10:43:15;;;;;;;1.20;1.20;;;;;;;;;;1815999;78;26296;-39
2022/12/03 10:45:42;;;;;;;1.00;1.00;;;;;;;;;;1798346;78;26226;-40
2022/12/03 10:48:14;;;;;;;0.95;0.95;;;;;;;;;;1768297;80;26304;-37
2022/12/03 10:50:55;;;;;;;1.05;1.05;;;;;;;;;;1799828;78;27080;-48
2022/12/03 10:53:24;;;;;;;1.00;1.00;;;;;;;;;;1830076;77;26752;-40
2022/12/03 10:55:57;;;;;;;1.15;1.15;;;;;;;;;;1833548;77;26988;-39
2022/12/03 10:58:22;;;;;;;1.00;1.00;;;;;;;;;;1794887;76;26365;-44
2022/12/03 11:00:51;;;;;;;1.12;1.12;;;;;;;;;;1756649;80;26759;-39
2022/12/03 11:03:19;;;;;;;1.00;1.00;;;;;;;;;;1833690;77;26270;-39
2022/12/03 11:05:47;;;;;;;1.00;1.00;;;;;;;;;;1835920;78;26220;-41
2022/12/03 11:08:15;;;;;;;0.90;0.90;;;;;;;;;;1832507;77;26188;-37
2022/12/03 11:10:43;;;;;;;0.95;0.95;;;;;;;;;;1833502;77;26220;-38
2022/12/03 11:13:28;;;;;;;1.00;1.00;;;;;;;;;;1830556;76;26268;-37
2022/12/03 11:15:56;;;;;;;0.90;0.90;;;;;;;;;;1831823;78;26731;-41
2022/12/03 11:18:36;;;;;;;0.98;0.98;;;;;;;;;;1796980;78;26229;-36
2022/12/03 11:21:06;;;;;;;1.00;1.00;;;;;;;;;;1816679;77;26230;-37
2022/12/03 11:23:46;;;;;;;1.00;1.00;;;;;;;;;;1817144;78;26376;-37
2022/12/03 11:26:30;;;;;;;0.98;0.98;;;;;;;;;;1816271;78;26201;-43
2022/12/03 11:28:58;;;;;;;1.00;1.00;;;;;;;;;;1816101;77;26210;-38
2022/12/03 11:31:36;;;;;;;0.78;0.78;;;;;;;;;;1801324;79;26229;-41
2022/12/03 11:34:20;;;;;;;1.10;1.10;;;;;;;;;;1804899;78;26754;-42
2022/12/03 11:37:05;;;;;;;0.90;0.90;;;;;;;;;;1800015;78;26222;-37
2022/12/03 11:39:46;;;;;;;1.12;1.02;;;;;;;;;;1804633;78;26240;-43
2022/12/03 11:42:26;;;;;;;0.90;0.90;;;;;;;;;;1805622;78;26257;-39
2022/12/03 11:45:04;;;;;;;0.80;0.80;;;;;;;;;;1799307;78;26237;-37
2022/12/03 11:47:35;;;;;;;1.10;1.10;;;;;;;;;;1798038;78;27135;-41
2022/12/03 11:50:04;;;;;;;1.07;1.07;;;;;;;;;;1800203;78;26693;-44
2022/12/03 11:52:33;;;;;;;0.90;0.90;;;;;;;;;;1797239;78;26582;-37
2022/12/03 11:55:02;;;;;;;1.10;1.10;;;;;;;;;;1803079;78;26363;-46
2022/12/03 11:57:34;;;;;;;0.95;0.95;;;;;;;;;;1798186;78;26281;-40
2022/12/03 12:00:03;;;;;;;0.93;0.93;;;;;;;;;;1814095;78;26786;-39
2022/12/03 12:02:31;;;;;;;0.80;0.80;;;;;;;;;;1829098;77;26336;-44
2022/12/03 12:04:59;;;;;;;0.80;0.80;;;;;;;;;;1832389;77;26745;-44
2022/12/03 12:07:33;;;;;;;1.00;1.00;;;;;;;;;;1799702;78;26288;-39
2022/12/03 12:10:01;;;;;;;0.82;0.82;;;;;;;;;;1831639;78;27092;-38
2022/12/03 12:12:30;;;;;;;0.80;0.80;;;;;;;;;;1831364;77;26257;-37
2022/12/03 12:14:58;;;;;;;0.90;0.90;;;;;;;;;;1831037;77;26338;-36
2022/12/03 12:17:28;;;;;;;0.80;0.80;;;;;;;;;;1829353;77;26655;-42
2022/12/03 12:20:14;;;;;;;0.80;0.80;;;;;;;;;;1853619;76;27196;-36
2022/12/03 12:22:41;;;;;;;0.80;0.80;;;;;;;;;;1854214;77;26207;-44
2022/12/03 12:25:26;;;;;;;0.80;0.80;;;;;;;;;;1854208;77;26393;-41
2022/12/03 12:27:54;;;;;;;0.85;0.85;;;;;;;;;;1829242;77;26300;-37
2022/12/03 12:30:22;;;;;;;0.90;0.90;;;;;;;;;;1829907;78;26201;-45
2022/12/03 12:32:51;;;;;;;0.90;0.90;;;;;;;;;;1790557;79;26337;-38
2022/12/03 12:35:22;;;;;;;0.82;0.82;;;;;;;;;;1795033;78;26198;-36
2022/12/03 12:37:52;;;;;;;0.88;0.88;;;;;;;;;;1795932;78;26210;-43
2022/12/03 12:40:22;;;;;;;0.78;0.78;;;;;;;;;;1796026;80;26718;-37
2022/12/03 12:42:53;;;;;;;0.95;0.95;;;;;;;;;;1796846;78;26247;-40
2022/12/03 12:45:21;;;;;;;1.02;1.02;;;;;;;;;;1794559;78;26707;-43
2022/12/03 12:47:50;;;;;;;0.78;0.78;;;;;;;;;;1819638;78;26832;-38
2022/12/03 12:50:18;;;;;;;0.85;0.85;;;;;;;;;;1821781;77;26725;-38
2022/12/03 12:52:50;;;;;;;1.00;1.00;;;;;;;;;;1817575;77;26293;-43
2022/12/03 12:55:17;;;;;;;0.90;0.90;;;;;;;;;;1821970;77;26659;-36
2022/12/03 12:57:45;;;;;;;1.00;1.00;;;;;;;;;;1822073;77;26904;-40
2022/12/03 13:00:17;;;;;;;0.90;0.90;;;;;;;;;;1822310;77;26280;-42
2022/12/03 13:02:46;;;;;;;1.12;1.12;;;;;;;;;;1821222;77;26241;-43
2022/12/03 13:05:13;;;;;;;1.07;1.00;;;;;;;;;;1824041;77;26627;-37
2022/12/03 13:07:41;;;;;;;0.93;0.93;;;;;;;;;;1774073;80;26322;-40
2022/12/03 13:10:27;;;;;;;1.00;1.00;;;;;;;;;;1800163;79;26288;-38
2022/12/03 13:12:54;;;;;;;1.35;0.93;;;;;;;;;;1821884;77;26286;-36
2022/12/03 13:15:38;;;;;;;1.12;1.12;;;;;;;;;;1822647;78;26233;-38
2022/12/03 13:18:09;;;;;;;1.10;1.10;;;;;;;;;;1783089;79;26301;-43
2022/12/03 13:20:37;;;;;;;1.87;1.20;;;;;;;;;;1822864;77;26234;-40
2022/12/03 13:23:05;;;;;;;2.77;1.10;;;;;;;;;;1841453;77;26308;-41
2022/12/03 13:25:35;;;;;;;1.20;1.20;;;;;;;;;;1832086;77;26654;-40
2022/12/03 13:28:03;;;;;;;2.08;1.10;;;;;;;;;;1764357;80;26238;-39
2022/12/03 13:30:30;;;;;;;1.10;1.10;;;;;;;;;;1794003;79;26189;-38
2022/12/03 13:32:57;;;;;;;1.20;1.20;;;;;;;;;;1817878;77;26311;-41
2022/12/03 13:35:26;;;;;;;2.30;1.30;;;;;;;;;;1792258;78;28383;-39
2022/12/03 13:37:53;;;;;;;1.30;1.20;;;;;;;;;;1771599;78;22300;-39
2022/12/03 13:40:25;;;;;;;1.12;1.10;;;;;;;;;;1774713;79;26793;-36
2022/12/03 13:42:53;;;;;;;2.35;1.35;;;;;;;;;;1832107;77;26282;-36
2022/12/03 13:45:25;;;;;;;1.22;1.22;;;;;;;;;;1832521;77;26327;-35
2022/12/03 13:47:56;;;;;;;1.10;1.10;;;;;;;;;;1799599;78;26638;-38
2022/12/03 13:50:37;;;;;;;1.10;1.10;;;;;;;;;;1799804;79;26300;-39
2022/12/03 13:53:12;;;;;;;0.95;0.95;;;;;;;;;;1755943;80;26260;-37
2022/12/03 13:55:41;;;;;;;1.00;1.00;;;;;;;;;;1832957;76;26236;-38
2022/12/03 13:58:08;;;;;;;2.05;1.10;;;;;;;;;;1830377;77;26349;-39
2022/12/03 14:00:36;;;;;;;1.37;1.05;;;;;;;;;;1820412;76;26825;-43
2022/12/03 14:03:03;;;;;;;0.90;0.90;;;;;;;;;;1824072;77;26275;-37
2022/12/03 14:05:31;;;;;;;2.70;1.10;;;;;;;;;;1831782;77;26310;-45
2022/12/03 14:08:00;;;;;;;0.90;0.90;;;;;;;;;;1831219;76;26220;-37
2022/12/03 14:10:28;;;;;;;2.45;1.15;;;;;;;;;;1833466;77;26216;-40
2022/12/03 14:12:55;;;;;;;1.00;0.90;;;;;;;;;;1843723;76;26206;-37
2022/12/03 14:15:23;;;;;;;1.35;1.20;;;;;;;;;;1826116;76;26291;-37
2022/12/03 14:17:51;;;;;;;0.90;0.90;;;;;;;;;;1830741;77;26201;-37
2022/12/03 14:20:18;;;;;;;1.05;1.05;;;;;;;;;;1826105;76;28147;-34
2022/12/03 14:22:45;;;;;;;1.20;1.10;;;;;;;;;;1831298;77;26192;-39
2022/12/03 14:25:13;;;;;;;2.45;1.10;;;;;;;;;;1814754;77;32199;-35
2022/12/03 14:27:40;;;;;;;1.35;1.02;;;;;;;;;;1832535;77;26287;-35
2022/12/03 14:30:08;;;;;;;0.80;0.80;;;;;;;;;;1831265;76;26399;-38
2022/12/03 14:32:35;;;;;;;0.85;0.85;;;;;;;;;;1830718;76;26212;-40
2022/12/03 14:35:02;;;;;;;2.27;1.10;;;;;;;;;;1832893;76;26598;-44
2022/12/03 14:37:29;;;;;;;4.80;1.00;;;;;;;;;;1818184;77;26240;-40
2022/12/03 14:39:57;;;;;;;1.65;0.90;;;;;;;;;;1800107;78;26219;-37
2022/12/03 14:42:24;;;;;;;0.98;0.98;;;;;;;;;;1801810;78;26222;-37
2022/12/03 14:44:51;;;;;;;0.90;0.90;;;;;;;;;;1771732;80;26330;-37
2022/12/03 14:47:21;;;;;;;1.37;0.90;;;;;;;;;;1832753;76;26208;-41
2022/12/03 14:49:49;;;;;;;4.58;0.90;;;;;;;;;;1827197;77;26065;-44
2022/12/03 14:52:17;;;;;;;1.00;1.00;;;;;;;;;;1830981;77;26293;-50
2022/12/03 14:54:44;;;;;;;1.00;1.00;;;;;;;;;;1785304;79;26230;-43
2022/12/03 14:57:12;;;;;;;1.92;1.00;;;;;;;;;;1756108;80;26267;-40
2022/12/03 14:59:41;;;;;;;0.98;0.98;;;;;;;;;;1827225;77;26215;-39
2022/12/03 15:02:08;;;;;;;1.00;1.00;;;;;;;;;;1829380;77;26294;-41
2022/12/03 15:04:36;;;;;;;0.93;0.93;;;;;;;;;;1788935;79;26243;-41
2022/12/03 15:07:03;;;;;;;0.90;0.90;;;;;;;;;;1755887;80;26274;-36
2022/12/03 15:09:30;;;;;;;1.00;1.00;;;;;;;;;;1827820;77;26237;-41